National Weather Service Raw Text Product

Displaying AFOS PIL: TAFALO Received: 2018-05-17 17:20 UTC


265 
FTUS43 KDMX 171720
TAFALO
TAF
KALO 171720Z 1718/1818 12005KT P6SM SCT250=